»·PEaware :: N505Z KSBA-KBUR

N505Z :: KSBA-KBUR

FLIGHT INFORMATION

Flight Status: Arrived
Operator: Privately registered:
United States
More flights under this callsign
Pilot: Glen R. (20150)
Aircraft: Unknown
(M20K)
More flights by this aircraft type
Origin: KSBA Santa Barbara Mun
United States
Destination: KBUR Bob Hope-Burbank
United States
More flights between these airports :: More routes between these airports
Route: +FF
File this flight plan on PilotEdge
Remarks: c8
Altitude:
(Current/Filed)
1,500ft
Speed:
(Current/Filed)
0kts
Departed: 28-Sep-18 05:30 PM
Arrived: 28-Sep-18 06:12 PM
Distance/Time
Traveled:
75nm/0:41
Distance/Time
To Go:
Arrived

Flight Plot

Page will automatically refresh every two minutes.

Flight plan parsing failed; only flown route is shown


Map Options




Map Legend


Flown Route
Filed Route
Departure Airport
Arrival Airport
Navaid (VOR, NDB)
Fix

Horizontal Profiles

Position Reports

Time Latitude Longitude Heading Altitude Ground
Speed
28-Sep-18 17:24 34.422670 -119.835596 339 15ft 0kts
28-Sep-18 17:25 34.422670 -119.835596 339 15ft 0kts
28-Sep-18 17:26 34.422670 -119.835596 339 15ft 0kts
28-Sep-18 17:27 34.422915 -119.836712 296 15ft 15kts
28-Sep-18 17:28 34.425490 -119.837991 345 15ft 19kts
28-Sep-18 17:29 34.428734 -119.838980 346 15ft 19kts
28-Sep-18 17:30 34.430547 -119.839592 309 15ft 0kts
28-Sep-18 17:31 34.430574 -119.839658 290 15ft 7kts
28-Sep-18 17:32 34.420563 -119.837124 162 143ft 94kts
28-Sep-18 17:33 34.402859 -119.828043 149 991ft 78kts
28-Sep-18 17:34 34.394439 -119.801591 86 1616ft 128kts
28-Sep-18 17:35 34.395615 -119.767301 86 2603ft 128kts
28-Sep-18 17:36 34.396939 -119.734366 94 3499ft 131kts
28-Sep-18 17:37 34.396870 -119.701708 87 4400ft 132kts
28-Sep-18 17:38 34.394575 -119.668787 96 5275ft 134kts
28-Sep-18 17:39 34.395925 -119.636881 79 6108ft 136kts
28-Sep-18 17:40 34.403836 -119.606468 67 6951ft 136kts
28-Sep-18 17:41 34.411031 -119.575717 92 7601ft 150kts
28-Sep-18 17:42 34.404447 -119.534630 104 7563ft 187kts
28-Sep-18 17:43 34.395082 -119.490303 102 7558ft 198kts
28-Sep-18 17:44 34.388105 -119.445095 97 7650ft 199kts
28-Sep-18 17:45 34.382535 -119.399382 101 7714ft 200kts
28-Sep-18 17:46 34.373041 -119.353686 107 7728ft 200kts
28-Sep-18 17:47 34.361823 -119.311091 108 7743ft 199kts
28-Sep-18 17:48 34.350098 -119.268112 108 7572ft 208kts
28-Sep-18 17:49 34.339898 -119.225693 104 7595ft 207kts
28-Sep-18 17:50 34.330564 -119.183352 103 7650ft 203kts
28-Sep-18 17:51 34.322336 -119.139838 101 7649ft 203kts
28-Sep-18 17:52 34.315775 -119.096243 99 7611ft 203kts
28-Sep-18 17:53 34.309496 -119.054775 101 7565ft 204kts
28-Sep-18 17:54 34.301998 -119.012663 102 7555ft 203kts
28-Sep-18 17:55 34.294972 -118.970594 99 7557ft 203kts
28-Sep-18 17:56 34.290227 -118.928317 97 7552ft 204kts
28-Sep-18 17:57 34.284292 -118.886122 100 7378ft 210kts
28-Sep-18 17:58 34.277658 -118.842133 100 7087ft 212kts
28-Sep-18 17:59 34.270725 -118.799546 102 6877ft 213kts
28-Sep-18 18:00 34.262810 -118.758104 103 6329ft 193kts
28-Sep-18 18:01 34.254738 -118.719949 103 5145ft 193kts
28-Sep-18 18:02 34.247437 -118.681483 101 4381ft 189kts
28-Sep-18 18:03 34.241607 -118.645319 102 3428ft 184kts
28-Sep-18 18:04 34.234997 -118.609959 103 2774ft 173kts
28-Sep-18 18:05 34.229288 -118.575062 99 2633ft 186kts
28-Sep-18 18:06 34.224425 -118.539298 100 2792ft 182kts
28-Sep-18 18:07 34.219624 -118.505800 98 2849ft 188kts
28-Sep-18 18:08 34.214981 -118.472250 99 2743ft 195kts
28-Sep-18 18:09 34.209946 -118.437070 101 2465ft 181kts
28-Sep-18 18:10 34.202718 -118.410489 110 1852ft 135kts
28-Sep-18 18:11 34.198812 -118.391545 93 1390ft 89kts
28-Sep-18 18:12 34.198142 -118.376901 91 930ft 78kts
28-Sep-18 18:13 34.197883 -118.364648 89 779ft 47kts
28-Sep-18 18:14 34.198429 -118.360375 353 779ft 9kts
28-Sep-18 18:15 34.198555 -118.360373 0 779ft 0kts
28-Sep-18 18:16 34.198571 -118.360372 359 779ft 0kts
28-Sep-18 18:17 34.199201 -118.359325 32 779ft 7kts

Navigation Log

Ident Type
Flight plan parsing failed, navigation log unavailable